sensor_id;sensor_type;location;lat;lon;timestamp;P1;durP1;ratioP1;P2;durP2;ratioP2
32347;SDS011;18821;44.800;10.326;2023-05-16T00:00:24;10.15;;;6.15;;
32347;SDS011;18821;44.800;10.326;2023-05-16T00:02:50;7.93;;;6.20;;
32347;SDS011;18821;44.800;10.326;2023-05-16T00:05:16;7.82;;;6.00;;
32347;SDS011;18821;44.800;10.326;2023-05-16T00:07:43;6.90;;;6.18;;
32347;SDS011;18821;44.800;10.326;2023-05-16T00:10:10;7.00;;;5.95;;
32347;SDS011;18821;44.800;10.326;2023-05-16T00:12:37;11.60;;;6.57;;
32347;SDS011;18821;44.800;10.326;2023-05-16T00:15:07;6.53;;;5.70;;
32347;SDS011;18821;44.800;10.326;2023-05-16T00:17:36;7.45;;;6.40;;
32347;SDS011;18821;44.800;10.326;2023-05-16T00:20:02;7.45;;;6.10;;
32347;SDS011;18821;44.800;10.326;2023-05-16T00:22:35;6.80;;;6.07;;
32347;SDS011;18821;44.800;10.326;2023-05-16T00:25:02;6.22;;;5.43;;
32347;SDS011;18821;44.800;10.326;2023-05-16T00:27:28;7.57;;;6.05;;
32347;SDS011;18821;44.800;10.326;2023-05-16T00:29:54;8.82;;;6.13;;
32347;SDS011;18821;44.800;10.326;2023-05-16T00:32:20;8.65;;;6.07;;
32347;SDS011;18821;44.800;10.326;2023-05-16T00:34:46;9.90;;;5.68;;
32347;SDS011;18821;44.800;10.326;2023-05-16T00:37:12;8.38;;;5.82;;
32347;SDS011;18821;44.800;10.326;2023-05-16T00:39:38;7.68;;;5.90;;
32347;SDS011;18821;44.800;10.326;2023-05-16T00:42:05;7.45;;;5.75;;
32347;SDS011;18821;44.800;10.326;2023-05-16T00:44:31;9.18;;;6.47;;
32347;SDS011;18821;44.800;10.326;2023-05-16T00:46:56;6.82;;;6.13;;
32347;SDS011;18821;44.800;10.326;2023-05-16T00:49:24;10.52;;;6.00;;
32347;SDS011;18821;44.800;10.326;2023-05-16T00:51:51;6.55;;;5.95;;
32347;SDS011;18821;44.800;10.326;2023-05-16T00:54:18;10.43;;;6.38;;
32347;SDS011;18821;44.800;10.326;2023-05-16T00:56:47;8.73;;;6.20;;
32347;SDS011;18821;44.800;10.326;2023-05-16T00:59:13;7.35;;;6.28;;
32347;SDS011;18821;44.800;10.326;2023-05-16T01:01:39;7.22;;;6.15;;
32347;SDS011;18821;44.800;10.326;2023-05-16T01:04:06;7.05;;;6.40;;
32347;SDS011;18821;44.800;10.326;2023-05-16T01:06:33;7.70;;;6.18;;
32347;SDS011;18821;44.800;10.326;2023-05-16T01:08:59;7.32;;;6.55;;
32347;SDS011;18821;44.800;10.326;2023-05-16T01:11:27;11.52;;;6.63;;
32347;SDS011;18821;44.800;10.326;2023-05-16T01:16:58;9.02;;;7.18;;
32347;SDS011;18821;44.800;10.326;2023-05-16T01:25:20;9.80;;;6.43;;
32347;SDS011;18821;44.800;10.326;2023-05-16T01:27:59;10.98;;;6.38;;
32347;SDS011;18821;44.800;10.326;2023-05-16T01:30:30;8.40;;;6.00;;
32347;SDS011;18821;44.800;10.326;2023-05-16T01:33:01;10.50;;;7.40;;
32347;SDS011;18821;44.800;10.326;2023-05-16T01:35:27;9.27;;;7.00;;
32347;SDS011;18821;44.800;10.326;2023-05-16T01:37:56;7.97;;;7.18;;
32347;SDS011;18821;44.800;10.326;2023-05-16T01:43:15;9.18;;;7.10;;
32347;SDS011;18821;44.800;10.326;2023-05-16T01:45:54;15.75;;;7.18;;
32347;SDS011;18821;44.800;10.326;2023-05-16T01:48:26;11.60;;;8.00;;
32347;SDS011;18821;44.800;10.326;2023-05-16T01:50:59;12.18;;;8.02;;
32347;SDS011;18821;44.800;10.326;2023-05-16T01:53:28;10.25;;;7.93;;
32347;SDS011;18821;44.800;10.326;2023-05-16T01:56:00;12.48;;;9.00;;
32347;SDS011;18821;44.800;10.326;2023-05-16T01:58:29;11.43;;;7.93;;
32347;SDS011;18821;44.800;10.326;2023-05-16T02:01:01;7.93;;;7.00;;
32347;SDS011;18821;44.800;10.326;2023-05-16T02:03:29;10.55;;;8.63;;
32347;SDS011;18821;44.800;10.326;2023-05-16T02:05:55;9.02;;;8.13;;
32347;SDS011;18821;44.800;10.326;2023-05-16T02:08:22;14.18;;;8.45;;
32347;SDS011;18821;44.800;10.326;2023-05-16T02:10:49;10.32;;;8.95;;
32347;SDS011;18821;44.800;10.326;2023-05-16T02:13:15;9.25;;;8.18;;
32347;SDS011;18821;44.800;10.326;2023-05-16T02:15:41;10.13;;;7.57;;
32347;SDS011;18821;44.800;10.326;2023-05-16T02:18:07;14.63;;;8.38;;
32347;SDS011;18821;44.800;10.326;2023-05-16T02:20:33;9.75;;;7.97;;
32347;SDS011;18821;44.800;10.326;2023-05-16T02:23:00;14.52;;;8.32;;
32347;SDS011;18821;44.800;10.326;2023-05-16T02:25:27;9.90;;;8.88;;
32347;SDS011;18821;44.800;10.326;2023-05-16T02:27:53;11.35;;;8.07;;
32347;SDS011;18821;44.800;10.326;2023-05-16T02:30:20;9.02;;;8.13;;
32347;SDS011;18821;44.800;10.326;2023-05-16T02:32:46;9.02;;;7.78;;
32347;SDS011;18821;44.800;10.326;2023-05-16T02:35:13;10.57;;;7.75;;
32347;SDS011;18821;44.800;10.326;2023-05-16T02:37:39;12.98;;;7.60;;
32347;SDS011;18821;44.800;10.326;2023-05-16T02:40:06;12.05;;;8.32;;
32347;SDS011;18821;44.800;10.326;2023-05-16T02:42:35;10.93;;;8.35;;
32347;SDS011;18821;44.800;10.326;2023-05-16T02:45:01;10.88;;;8.10;;
32347;SDS011;18821;44.800;10.326;2023-05-16T02:47:27;9.23;;;8.32;;
32347;SDS011;18821;44.800;10.326;2023-05-16T02:49:53;8.52;;;7.45;;
32347;SDS011;18821;44.800;10.326;2023-05-16T02:52:19;11.30;;;8.75;;
32347;SDS011;18821;44.800;10.326;2023-05-16T02:54:45;10.48;;;8.75;;
32347;SDS011;18821;44.800;10.326;2023-05-16T02:57:11;12.65;;;8.80;;
32347;SDS011;18821;44.800;10.326;2023-05-16T02:59:37;10.65;;;8.43;;
32347;SDS011;18821;44.800;10.326;2023-05-16T03:02:03;13.30;;;8.20;;
32347;SDS011;18821;44.800;10.326;2023-05-16T03:04:29;11.27;;;8.45;;
32347;SDS011;18821;44.800;10.326;2023-05-16T03:06:55;13.13;;;9.23;;
32347;SDS011;18821;44.800;10.326;2023-05-16T03:09:21;10.27;;;8.90;;
32347;SDS011;18821;44.800;10.326;2023-05-16T03:11:47;14.07;;;9.70;;
32347;SDS011;18821;44.800;10.326;2023-05-16T03:14:13;23.10;;;10.82;;
32347;SDS011;18821;44.800;10.326;2023-05-16T03:16:39;15.88;;;10.95;;
32347;SDS011;18821;44.800;10.326;2023-05-16T03:19:08;13.77;;;11.80;;
32347;SDS011;18821;44.800;10.326;2023-05-16T03:21:34;22.85;;;11.48;;
32347;SDS011;18821;44.800;10.326;2023-05-16T03:24:03;17.88;;;11.70;;
32347;SDS011;18821;44.800;10.326;2023-05-16T03:26:29;13.95;;;11.95;;
32347;SDS011;18821;44.800;10.326;2023-05-16T03:28:55;15.52;;;12.77;;
32347;SDS011;18821;44.800;10.326;2023-05-16T03:31:21;17.77;;;12.10;;
32347;SDS011;18821;44.800;10.326;2023-05-16T03:33:48;15.80;;;12.60;;
32347;SDS011;18821;44.800;10.326;2023-05-16T03:36:13;15.30;;;12.90;;
32347;SDS011;18821;44.800;10.326;2023-05-16T03:38:39;16.60;;;13.40;;
32347;SDS011;18821;44.800;10.326;2023-05-16T03:41:05;14.27;;;11.30;;
32347;SDS011;18821;44.800;10.326;2023-05-16T03:43:31;16.63;;;12.27;;
32347;SDS011;18821;44.800;10.326;2023-05-16T03:45:57;15.52;;;11.43;;
32347;SDS011;18821;44.800;10.326;2023-05-16T03:48:25;16.85;;;11.60;;
32347;SDS011;18821;44.800;10.326;2023-05-16T03:50:51;12.77;;;10.68;;
32347;SDS011;18821;44.800;10.326;2023-05-16T03:53:17;17.20;;;10.88;;
32347;SDS011;18821;44.800;10.326;2023-05-16T03:55:43;15.30;;;9.50;;
32347;SDS011;18821;44.800;10.326;2023-05-16T03:58:09;13.23;;;10.07;;
32347;SDS011;18821;44.800;10.326;2023-05-16T04:00:35;12.23;;;9.02;;
32347;SDS011;18821;44.800;10.326;2023-05-16T04:03:01;8.25;;;6.85;;
32347;SDS011;18821;44.800;10.326;2023-05-16T04:05:27;10.07;;;7.53;;
32347;SDS011;18821;44.800;10.326;2023-05-16T04:07:53;9.77;;;7.25;;
32347;SDS011;18821;44.800;10.326;2023-05-16T04:10:19;9.90;;;7.00;;
32347;SDS011;18821;44.800;10.326;2023-05-16T04:12:45;13.23;;;7.50;;
32347;SDS011;18821;44.800;10.326;2023-05-16T04:15:11;10.95;;;7.35;;
32347;SDS011;18821;44.800;10.326;2023-05-16T04:17:37;10.18;;;6.80;;
32347;SDS011;18821;44.800;10.326;2023-05-16T04:20:02;5.25;;;4.20;;
32347;SDS011;18821;44.800;10.326;2023-05-16T04:22:29;9.05;;;3.85;;
32347;SDS011;18821;44.800;10.326;2023-05-16T04:24:55;2.80;;;2.40;;
32347;SDS011;18821;44.800;10.326;2023-05-16T04:27:21;8.55;;;2.70;;
32347;SDS011;18821;44.800;10.326;2023-05-16T04:29:47;5.95;;;2.67;;
32347;SDS011;18821;44.800;10.326;2023-05-16T04:32:13;4.60;;;2.05;;
32347;SDS011;18821;44.800;10.326;2023-05-16T04:34:39;4.25;;;1.83;;
32347;SDS011;18821;44.800;10.326;2023-05-16T04:37:06;2.05;;;1.35;;
32347;SDS011;18821;44.800;10.326;2023-05-16T04:39:33;4.97;;;1.40;;
32347;SDS011;18821;44.800;10.326;2023-05-16T04:41:59;3.78;;;1.25;;
32347;SDS011;18821;44.800;10.326;2023-05-16T04:44:26;8.35;;;1.30;;
32347;SDS011;18821;44.800;10.326;2023-05-16T04:46:52;4.15;;;1.70;;
32347;SDS011;18821;44.800;10.326;2023-05-16T04:49:19;2.33;;;0.82;;
32347;SDS011;18821;44.800;10.326;2023-05-16T04:51:46;6.72;;;1.13;;
32347;SDS011;18821;44.800;10.326;2023-05-16T04:54:12;4.00;;;1.13;;
32347;SDS011;18821;44.800;10.326;2023-05-16T04:56:38;6.38;;;1.27;;
32347;SDS011;18821;44.800;10.326;2023-05-16T04:59:04;10.68;;;1.00;;
32347;SDS011;18821;44.800;10.326;2023-05-16T05:01:30;3.53;;;1.00;;
32347;SDS011;18821;44.800;10.326;2023-05-16T05:03:56;2.55;;;1.00;;
32347;SDS011;18821;44.800;10.326;2023-05-16T05:06:22;3.65;;;0.90;;
32347;SDS011;18821;44.800;10.326;2023-05-16T05:08:48;2.42;;;1.08;;
32347;SDS011;18821;44.800;10.326;2023-05-16T05:11:14;5.78;;;1.40;;
32347;SDS011;18821;44.800;10.326;2023-05-16T05:13:40;3.30;;;1.20;;
32347;SDS011;18821;44.800;10.326;2023-05-16T05:16:06;2.83;;;0.88;;
32347;SDS011;18821;44.800;10.326;2023-05-16T05:18:32;3.83;;;1.27;;
32347;SDS011;18821;44.800;10.326;2023-05-16T05:20:58;5.07;;;1.15;;
32347;SDS011;18821;44.800;10.326;2023-05-16T05:23:24;15.02;;;3.05;;
32347;SDS011;18821;44.800;10.326;2023-05-16T05:25:50;4.35;;;1.13;;
32347;SDS011;18821;44.800;10.326;2023-05-16T05:28:16;3.00;;;1.15;;
32347;SDS011;18821;44.800;10.326;2023-05-16T05:30:42;6.03;;;1.38;;
32347;SDS011;18821;44.800;10.326;2023-05-16T05:33:09;4.43;;;1.50;;
32347;SDS011;18821;44.800;10.326;2023-05-16T05:35:36;2.67;;;1.55;;
32347;SDS011;18821;44.800;10.326;2023-05-16T05:38:02;4.57;;;1.50;;
32347;SDS011;18821;44.800;10.326;2023-05-16T05:40:28;6.47;;;1.73;;
32347;SDS011;18821;44.800;10.326;2023-05-16T05:42:54;4.43;;;1.30;;
32347;SDS011;18821;44.800;10.326;2023-05-16T05:45:20;4.40;;;1.52;;
32347;SDS011;18821;44.800;10.326;2023-05-16T05:47:46;6.03;;;1.60;;
32347;SDS011;18821;44.800;10.326;2023-05-16T05:50:12;5.63;;;1.42;;
32347;SDS011;18821;44.800;10.326;2023-05-16T05:52:38;6.07;;;1.50;;
32347;SDS011;18821;44.800;10.326;2023-05-16T05:55:05;4.93;;;1.88;;
32347;SDS011;18821;44.800;10.326;2023-05-16T05:57:31;3.90;;;1.50;;
32347;SDS011;18821;44.800;10.326;2023-05-16T05:59:56;5.63;;;1.50;;
32347;SDS011;18821;44.800;10.326;2023-05-16T06:02:22;8.73;;;1.58;;
32347;SDS011;18821;44.800;10.326;2023-05-16T06:04:48;3.53;;;1.52;;
32347;SDS011;18821;44.800;10.326;2023-05-16T06:07:14;6.82;;;2.00;;
32347;SDS011;18821;44.800;10.326;2023-05-16T06:09:41;5.63;;;1.75;;
32347;SDS011;18821;44.800;10.326;2023-05-16T06:12:08;4.93;;;1.40;;
32347;SDS011;18821;44.800;10.326;2023-05-16T06:14:34;3.13;;;1.50;;
32347;SDS011;18821;44.800;10.326;2023-05-16T06:17:00;3.25;;;1.52;;
32347;SDS011;18821;44.800;10.326;2023-05-16T06:19:26;3.85;;;2.00;;
32347;SDS011;18821;44.800;10.326;2023-05-16T06:21:51;6.97;;;2.30;;
32347;SDS011;18821;44.800;10.326;2023-05-16T06:24:17;3.33;;;1.83;;
32347;SDS011;18821;44.800;10.326;2023-05-16T06:26:43;4.30;;;2.00;;
32347;SDS011;18821;44.800;10.326;2023-05-16T06:29:13;2.33;;;1.70;;
32347;SDS011;18821;44.800;10.326;2023-05-16T06:31:39;4.28;;;1.70;;
32347;SDS011;18821;44.800;10.326;2023-05-16T06:34:05;4.30;;;2.22;;
32347;SDS011;18821;44.800;10.326;2023-05-16T06:36:31;2.20;;;1.60;;
32347;SDS011;18821;44.800;10.326;2023-05-16T06:38:57;3.83;;;1.80;;
32347;SDS011;18821;44.800;10.326;2023-05-16T06:41:23;2.63;;;1.83;;
32347;SDS011;18821;44.800;10.326;2023-05-16T06:43:50;5.75;;;1.70;;
32347;SDS011;18821;44.800;10.326;2023-05-16T06:46:16;5.43;;;2.10;;
32347;SDS011;18821;44.800;10.326;2023-05-16T06:48:42;3.22;;;1.60;;
32347;SDS011;18821;44.800;10.326;2023-05-16T06:51:08;5.80;;;2.00;;
32347;SDS011;18821;44.800;10.326;2023-05-16T06:53:34;8.75;;;1.85;;
32347;SDS011;18821;44.800;10.326;2023-05-16T06:56:00;7.43;;;2.33;;
32347;SDS011;18821;44.800;10.326;2023-05-16T06:58:26;13.32;;;2.55;;
32347;SDS011;18821;44.800;10.326;2023-05-16T07:00:52;8.00;;;3.63;;
32347;SDS011;18821;44.800;10.326;2023-05-16T07:03:18;4.63;;;2.92;;
32347;SDS011;18821;44.800;10.326;2023-05-16T07:05:44;3.05;;;2.13;;
32347;SDS011;18821;44.800;10.326;2023-05-16T07:08:10;3.78;;;2.00;;
32347;SDS011;18821;44.800;10.326;2023-05-16T07:10:37;7.22;;;2.55;;
32347;SDS011;18821;44.800;10.326;2023-05-16T07:13:05;5.32;;;1.60;;
32347;SDS011;18821;44.800;10.326;2023-05-16T07:15:31;4.20;;;1.90;;
32347;SDS011;18821;44.800;10.326;2023-05-16T07:17:57;3.88;;;1.70;;
32347;SDS011;18821;44.800;10.326;2023-05-16T07:20:23;6.05;;;1.77;;
32347;SDS011;18821;44.800;10.326;2023-05-16T07:22:49;5.25;;;1.90;;
32347;SDS011;18821;44.800;10.326;2023-05-16T07:25:15;4.10;;;1.80;;
32347;SDS011;18821;44.800;10.326;2023-05-16T07:27:41;5.78;;;1.75;;
32347;SDS011;18821;44.800;10.326;2023-05-16T07:30:12;3.05;;;2.00;;
32347;SDS011;18821;44.800;10.326;2023-05-16T07:32:38;6.47;;;1.70;;
32347;SDS011;18821;44.800;10.326;2023-05-16T07:35:05;6.45;;;3.85;;
32347;SDS011;18821;44.800;10.326;2023-05-16T07:37:31;5.55;;;2.30;;
32347;SDS011;18821;44.800;10.326;2023-05-16T07:39:57;5.35;;;2.28;;
32347;SDS011;18821;44.800;10.326;2023-05-16T07:42:23;3.20;;;2.20;;
32347;SDS011;18821;44.800;10.326;2023-05-16T07:44:49;2.83;;;1.77;;
32347;SDS011;18821;44.800;10.326;2023-05-16T07:47:15;3.97;;;2.47;;
32347;SDS011;18821;44.800;10.326;2023-05-16T07:49:41;3.97;;;2.28;;
32347;SDS011;18821;44.800;10.326;2023-05-16T07:52:07;3.72;;;1.83;;
32347;SDS011;18821;44.800;10.326;2023-05-16T07:54:33;5.55;;;2.20;;
32347;SDS011;18821;44.800;10.326;2023-05-16T07:57:00;5.55;;;3.03;;
32347;SDS011;18821;44.800;10.326;2023-05-16T07:59:27;63.28;;;6.28;;
32347;SDS011;18821;44.800;10.326;2023-05-16T08:01:53;22.23;;;3.45;;
32347;SDS011;18821;44.800;10.326;2023-05-16T08:04:19;7.97;;;2.58;;
32347;SDS011;18821;44.800;10.326;2023-05-16T08:06:45;9.48;;;2.53;;
32347;SDS011;18821;44.800;10.326;2023-05-16T08:09:11;13.07;;;2.45;;
32347;SDS011;18821;44.800;10.326;2023-05-16T08:11:37;8.52;;;2.35;;
32347;SDS011;18821;44.800;10.326;2023-05-16T08:14:04;6.15;;;2.05;;
32347;SDS011;18821;44.800;10.326;2023-05-16T08:16:30;6.22;;;2.30;;
32347;SDS011;18821;44.800;10.326;2023-05-16T08:18:56;3.47;;;1.98;;
32347;SDS011;18821;44.800;10.326;2023-05-16T08:21:22;3.67;;;1.70;;
32347;SDS011;18821;44.800;10.326;2023-05-16T08:23:48;3.65;;;2.28;;
32347;SDS011;18821;44.800;10.326;2023-05-16T08:26:14;3.85;;;2.03;;
32347;SDS011;18821;44.800;10.326;2023-05-16T08:28:41;4.07;;;2.20;;
32347;SDS011;18821;44.800;10.326;2023-05-16T08:31:07;2.10;;;1.73;;
32347;SDS011;18821;44.800;10.326;2023-05-16T08:33:33;7.85;;;2.28;;
32347;SDS011;18821;44.800;10.326;2023-05-16T08:35:59;4.82;;;1.92;;
32347;SDS011;18821;44.800;10.326;2023-05-16T08:38:25;4.85;;;2.33;;
32347;SDS011;18821;44.800;10.326;2023-05-16T08:40:51;2.75;;;1.40;;
32347;SDS011;18821;44.800;10.326;2023-05-16T08:43:17;5.20;;;2.00;;
32347;SDS011;18821;44.800;10.326;2023-05-16T08:45:43;5.65;;;1.70;;
32347;SDS011;18821;44.800;10.326;2023-05-16T08:48:10;3.55;;;1.75;;
32347;SDS011;18821;44.800;10.326;2023-05-16T08:50:36;3.40;;;1.88;;
32347;SDS011;18821;44.800;10.326;2023-05-16T08:53:06;7.55;;;1.95;;
32347;SDS011;18821;44.800;10.326;2023-05-16T08:55:34;5.43;;;2.22;;
32347;SDS011;18821;44.800;10.326;2023-05-16T08:58:00;7.25;;;2.67;;
32347;SDS011;18821;44.800;10.326;2023-05-16T09:00:27;5.68;;;2.20;;
32347;SDS011;18821;44.800;10.326;2023-05-16T09:02:54;7.45;;;2.25;;
32347;SDS011;18821;44.800;10.326;2023-05-16T09:05:20;4.25;;;2.25;;
32347;SDS011;18821;44.800;10.326;2023-05-16T09:07:47;4.30;;;1.88;;
32347;SDS011;18821;44.800;10.326;2023-05-16T09:10:12;6.50;;;2.72;;
32347;SDS011;18821;44.800;10.326;2023-05-16T09:12:39;4.82;;;2.30;;
32347;SDS011;18821;44.800;10.326;2023-05-16T09:15:06;4.03;;;1.92;;
32347;SDS011;18821;44.800;10.326;2023-05-16T09:17:34;7.60;;;2.15;;
32347;SDS011;18821;44.800;10.326;2023-05-16T09:20:22;4.47;;;2.40;;
32347;SDS011;18821;44.800;10.326;2023-05-16T09:22:52;6.45;;;2.53;;
32347;SDS011;18821;44.800;10.326;2023-05-16T09:25:23;7.45;;;2.58;;
32347;SDS011;18821;44.800;10.326;2023-05-16T09:27:53;7.43;;;2.80;;
32347;SDS011;18821;44.800;10.326;2023-05-16T09:30:21;6.18;;;3.40;;
32347;SDS011;18821;44.800;10.326;2023-05-16T09:32:50;6.45;;;3.10;;
32347;SDS011;18821;44.800;10.326;2023-05-16T09:35:18;2.65;;;1.75;;
32347;SDS011;18821;44.800;10.326;2023-05-16T09:37:45;2.80;;;2.00;;
32347;SDS011;18821;44.800;10.326;2023-05-16T09:40:13;2.72;;;1.60;;
32347;SDS011;18821;44.800;10.326;2023-05-16T09:42:43;8.13;;;2.30;;
32347;SDS011;18821;44.800;10.326;2023-05-16T09:45:11;6.65;;;4.63;;
32347;SDS011;18821;44.800;10.326;2023-05-16T09:47:38;4.15;;;1.88;;
32347;SDS011;18821;44.800;10.326;2023-05-16T09:50:12;3.63;;;2.00;;
32347;SDS011;18821;44.800;10.326;2023-05-16T09:52:39;6.15;;;2.67;;
32347;SDS011;18821;44.800;10.326;2023-05-16T09:55:06;2.58;;;1.80;;
32347;SDS011;18821;44.800;10.326;2023-05-16T09:57:35;3.80;;;2.40;;
32347;SDS011;18821;44.800;10.326;2023-05-16T10:00:04;3.90;;;2.08;;
32347;SDS011;18821;44.800;10.326;2023-05-16T10:02:34;3.25;;;1.95;;
32347;SDS011;18821;44.800;10.326;2023-05-16T10:05:01;5.22;;;2.13;;
32347;SDS011;18821;44.800;10.326;2023-05-16T10:07:27;4.28;;;2.70;;
32347;SDS011;18821;44.800;10.326;2023-05-16T10:09:56;4.78;;;2.30;;
32347;SDS011;18821;44.800;10.326;2023-05-16T10:12:24;5.90;;;2.72;;
32347;SDS011;18821;44.800;10.326;2023-05-16T10:14:55;3.85;;;2.67;;
32347;SDS011;18821;44.800;10.326;2023-05-16T10:17:23;6.13;;;2.25;;
32347;SDS011;18821;44.800;10.326;2023-05-16T10:19:51;2.70;;;2.22;;
32347;SDS011;18821;44.800;10.326;2023-05-16T10:22:18;3.45;;;2.35;;
32347;SDS011;18821;44.800;10.326;2023-05-16T10:24:47;3.22;;;2.22;;
32347;SDS011;18821;44.800;10.326;2023-05-16T10:27:31;6.50;;;2.63;;
32347;SDS011;18821;44.800;10.326;2023-05-16T10:29:58;5.03;;;2.95;;
32347;SDS011;18821;44.800;10.326;2023-05-16T10:32:26;4.15;;;2.42;;
32347;SDS011;18821;44.800;10.326;2023-05-16T10:34:53;10.77;;;2.13;;
32347;SDS011;18821;44.800;10.326;2023-05-16T10:37:20;3.38;;;2.33;;
32347;SDS011;18821;44.800;10.326;2023-05-16T10:39:47;3.95;;;2.22;;
32347;SDS011;18821;44.800;10.326;2023-05-16T10:42:15;3.10;;;2.50;;
32347;SDS011;18821;44.800;10.326;2023-05-16T10:44:42;8.27;;;2.83;;
32347;SDS011;18821;44.800;10.326;2023-05-16T10:47:08;3.72;;;2.67;;
32347;SDS011;18821;44.800;10.326;2023-05-16T10:49:34;3.95;;;2.80;;
32347;SDS011;18821;44.800;10.326;2023-05-16T10:54:38;4.82;;;2.92;;
32347;SDS011;18821;44.800;10.326;2023-05-16T10:59:39;3.85;;;2.38;;
32347;SDS011;18821;44.800;10.326;2023-05-16T11:04:59;5.78;;;2.83;;
32347;SDS011;18821;44.800;10.326;2023-05-16T11:07:33;7.90;;;3.70;;
32347;SDS011;18821;44.800;10.326;2023-05-16T11:10:07;7.03;;;3.45;;
32347;SDS011;18821;44.800;10.326;2023-05-16T11:12:35;5.63;;;4.13;;
32347;SDS011;18821;44.800;10.326;2023-05-16T11:15:19;6.68;;;3.90;;
32347;SDS011;18821;44.800;10.326;2023-05-16T11:17:48;7.32;;;3.78;;
32347;SDS011;18821;44.800;10.326;2023-05-16T11:20:29;9.68;;;3.47;;
32347;SDS011;18821;44.800;10.326;2023-05-16T11:25:41;5.03;;;3.78;;
32347;SDS011;18821;44.800;10.326;2023-05-16T11:28:10;5.13;;;3.42;;
32347;SDS011;18821;44.800;10.326;2023-05-16T11:30:44;5.70;;;3.85;;
32347;SDS011;18821;44.800;10.326;2023-05-16T11:33:13;6.07;;;3.55;;
32347;SDS011;18821;44.800;10.326;2023-05-16T11:35:39;7.88;;;4.47;;
32347;SDS011;18821;44.800;10.326;2023-05-16T11:38:10;6.43;;;4.35;;
32347;SDS011;18821;44.800;10.326;2023-05-16T11:40:42;5.30;;;3.35;;
32347;SDS011;18821;44.800;10.326;2023-05-16T11:43:09;8.52;;;4.13;;
32347;SDS011;18821;44.800;10.326;2023-05-16T11:45:35;7.95;;;4.30;;
32347;SDS011;18821;44.800;10.326;2023-05-16T11:48:02;8.60;;;4.40;;
32347;SDS011;18821;44.800;10.326;2023-05-16T11:50:28;6.80;;;3.83;;
32347;SDS011;18821;44.800;10.326;2023-05-16T11:52:55;6.55;;;4.38;;
32347;SDS011;18821;44.800;10.326;2023-05-16T11:55:23;7.10;;;3.40;;
32347;SDS011;18821;44.800;10.326;2023-05-16T11:57:50;6.38;;;3.50;;
32347;SDS011;18821;44.800;10.326;2023-05-16T12:00:17;5.85;;;3.30;;
32347;SDS011;18821;44.800;10.326;2023-05-16T12:02:45;6.50;;;3.78;;
32347;SDS011;18821;44.800;10.326;2023-05-16T12:05:12;4.18;;;3.17;;
32347;SDS011;18821;44.800;10.326;2023-05-16T12:07:41;9.43;;;3.45;;
32347;SDS011;18821;44.800;10.326;2023-05-16T12:10:09;4.25;;;3.03;;
32347;SDS011;18821;44.800;10.326;2023-05-16T12:12:37;5.43;;;3.63;;
32347;SDS011;18821;44.800;10.326;2023-05-16T12:15:05;13.70;;;4.32;;
32347;SDS011;18821;44.800;10.326;2023-05-16T12:17:34;6.07;;;3.72;;
32347;SDS011;18821;44.800;10.326;2023-05-16T12:20:01;6.38;;;3.50;;
32347;SDS011;18821;44.800;10.326;2023-05-16T12:22:31;5.07;;;3.75;;
32347;SDS011;18821;44.800;10.326;2023-05-16T12:24:58;7.95;;;3.88;;
32347;SDS011;18821;44.800;10.326;2023-05-16T12:27:25;5.53;;;3.88;;
32347;SDS011;18821;44.800;10.326;2023-05-16T12:29:54;6.07;;;4.32;;
32347;SDS011;18821;44.800;10.326;2023-05-16T12:32:22;4.32;;;3.63;;
32347;SDS011;18821;44.800;10.326;2023-05-16T12:34:49;4.68;;;3.50;;
32347;SDS011;18821;44.800;10.326;2023-05-16T12:37:16;6.70;;;4.13;;
32347;SDS011;18821;44.800;10.326;2023-05-16T12:39:42;5.53;;;4.40;;
32347;SDS011;18821;44.800;10.326;2023-05-16T12:42:11;6.93;;;4.25;;
32347;SDS011;18821;44.800;10.326;2023-05-16T12:44:38;8.25;;;4.63;;
32347;SDS011;18821;44.800;10.326;2023-05-16T12:47:09;5.25;;;3.72;;
32347;SDS011;18821;44.800;10.326;2023-05-16T12:49:42;5.53;;;3.22;;
32347;SDS011;18821;44.800;10.326;2023-05-16T12:52:18;9.82;;;4.18;;
32347;SDS011;18821;44.800;10.326;2023-05-16T12:54:45;8.63;;;5.13;;
32347;SDS011;18821;44.800;10.326;2023-05-16T12:57:13;6.15;;;4.55;;
32347;SDS011;18821;44.800;10.326;2023-05-16T12:59:39;6.78;;;4.18;;
32347;SDS011;18821;44.800;10.326;2023-05-16T13:02:05;5.80;;;4.43;;
32347;SDS011;18821;44.800;10.326;2023-05-16T13:04:31;8.63;;;5.20;;
32347;SDS011;18821;44.800;10.326;2023-05-16T13:06:57;8.65;;;5.47;;
32347;SDS011;18821;44.800;10.326;2023-05-16T13:09:23;8.27;;;5.18;;
32347;SDS011;18821;44.800;10.326;2023-05-16T13:11:50;8.88;;;5.78;;
32347;SDS011;18821;44.800;10.326;2023-05-16T13:14:16;7.72;;;6.38;;
32347;SDS011;18821;44.800;10.326;2023-05-16T13:16:42;7.90;;;5.65;;
32347;SDS011;18821;44.800;10.326;2023-05-16T13:19:09;12.93;;;6.90;;
32347;SDS011;18821;44.800;10.326;2023-05-16T13:21:35;16.90;;;7.00;;
32347;SDS011;18821;44.800;10.326;2023-05-16T13:24:00;7.10;;;5.82;;
32347;SDS011;18821;44.800;10.326;2023-05-16T13:26:26;9.35;;;5.97;;
32347;SDS011;18821;44.800;10.326;2023-05-16T13:28:52;8.43;;;6.22;;
32347;SDS011;18821;44.800;10.326;2023-05-16T13:31:19;9.73;;;7.13;;
32347;SDS011;18821;44.800;10.326;2023-05-16T13:33:46;11.80;;;6.88;;
32347;SDS011;18821;44.800;10.326;2023-05-16T13:36:12;10.05;;;7.35;;
32347;SDS011;18821;44.800;10.326;2023-05-16T13:38:39;7.40;;;4.57;;
32347;SDS011;18821;44.800;10.326;2023-05-16T13:41:05;7.10;;;5.60;;
32347;SDS011;18821;44.800;10.326;2023-05-16T13:43:31;7.70;;;5.53;;
32347;SDS011;18821;44.800;10.326;2023-05-16T13:45:57;9.10;;;5.55;;
32347;SDS011;18821;44.800;10.326;2023-05-16T13:48:23;8.57;;;4.78;;
32347;SDS011;18821;44.800;10.326;2023-05-16T13:50:49;8.30;;;4.93;;
32347;SDS011;18821;44.800;10.326;2023-05-16T13:53:16;9.80;;;4.53;;
32347;SDS011;18821;44.800;10.326;2023-05-16T13:55:42;7.05;;;4.47;;
32347;SDS011;18821;44.800;10.326;2023-05-16T13:58:07;8.25;;;4.47;;
32347;SDS011;18821;44.800;10.326;2023-05-16T14:00:33;7.78;;;4.63;;
32347;SDS011;18821;44.800;10.326;2023-05-16T14:02:59;9.57;;;4.60;;
32347;SDS011;18821;44.800;10.326;2023-05-16T14:05:25;11.32;;;5.15;;
32347;SDS011;18821;44.800;10.326;2023-05-16T14:07:51;9.18;;;4.82;;
32347;SDS011;18821;44.800;10.326;2023-05-16T14:10:17;9.48;;;4.53;;
32347;SDS011;18821;44.800;10.326;2023-05-16T14:12:43;9.68;;;5.60;;
32347;SDS011;18821;44.800;10.326;2023-05-16T14:15:09;14.23;;;5.85;;
32347;SDS011;18821;44.800;10.326;2023-05-16T14:17:35;7.43;;;4.47;;
32347;SDS011;18821;44.800;10.326;2023-05-16T14:20:01;13.68;;;5.15;;
32347;SDS011;18821;44.800;10.326;2023-05-16T14:22:30;6.50;;;4.78;;
32347;SDS011;18821;44.800;10.326;2023-05-16T14:24:56;8.20;;;4.43;;
32347;SDS011;18821;44.800;10.326;2023-05-16T14:27:22;9.30;;;5.45;;
32347;SDS011;18821;44.800;10.326;2023-05-16T14:29:48;10.02;;;5.43;;
32347;SDS011;18821;44.800;10.326;2023-05-16T14:32:14;9.73;;;5.30;;
32347;SDS011;18821;44.800;10.326;2023-05-16T14:34:40;7.88;;;5.40;;
32347;SDS011;18821;44.800;10.326;2023-05-16T14:37:06;9.38;;;5.63;;
32347;SDS011;18821;44.800;10.326;2023-05-16T14:39:33;8.95;;;6.20;;
32347;SDS011;18821;44.800;10.326;2023-05-16T14:41:59;9.25;;;5.85;;
32347;SDS011;18821;44.800;10.326;2023-05-16T14:44:25;9.02;;;6.82;;
32347;SDS011;18821;44.800;10.326;2023-05-16T14:46:51;12.45;;;7.22;;
32347;SDS011;18821;44.800;10.326;2023-05-16T14:49:17;10.13;;;7.13;;
32347;SDS011;18821;44.800;10.326;2023-05-16T14:51:43;12.00;;;7.32;;